Time;durP1;ratioP1;P1;durP2;ratioP2;P2;SDS_P1;SDS_P2;PMS_P1;PMS_P2;Temp;Humidity;BMP_temperature;BMP_pressure;BME280_temperature;BME280_humidity;BME280_pressure;Samples;Min_cycle;Max_cycle;Signal;HPM_P1;HPM_P2
2023/04/21 00:01:26;;;;;;;5.68;3.10;;;19.20;1.00;;;;;;5031913;28;20076;-36
2023/04/21 00:03:54;;;;;;;4.22;2.70;;;19.20;1.00;;;;;;5031285;28;20052;-35
2023/04/21 00:06:22;;;;;;;4.43;2.80;;;19.20;1.00;;;;;;5032133;28;20397;-35
2023/04/21 00:08:49;;;;;;;5.22;3.35;;;19.20;1.00;;;;;;5014646;28;20034;-36
2023/04/21 00:11:16;;;;;;;7.63;3.17;;;19.20;1.00;;;;;;5032021;28;20037;-36
2023/04/21 00:13:43;;;;;;;4.93;2.97;;;19.20;1.00;;;;;;5031233;28;20124;-35
2023/04/21 00:16:10;;;;;;;7.20;3.03;;;19.10;1.00;;;;;;5032061;28;20033;-35
2023/04/21 00:18:37;;;;;;;4.82;3.08;;;19.10;1.00;;;;;;5031827;28;20073;-35
2023/04/21 00:21:05;;;;;;;7.03;3.22;;;19.10;1.00;;;;;;5031891;28;20041;-35
2023/04/21 00:23:31;;;;;;;12.52;4.55;;;19.10;1.00;;;;;;5030963;28;20044;-36
2023/04/21 00:26:01;;;;;;;6.05;3.03;;;19.10;1.00;;;;;;5031975;28;20051;-35
2023/04/21 00:28:28;;;;;;;5.40;3.35;;;19.10;1.00;;;;;;5031792;28;20099;-35
2023/04/21 00:30:56;;;;;;;4.43;2.80;;;19.10;1.00;;;;;;5014118;28;20059;-35
2023/04/21 00:33:24;;;;;;;7.75;2.70;;;19.00;1.00;;;;;;5013251;28;20140;-36
2023/04/21 00:35:55;;;;;;;5.30;3.00;;;19.00;1.00;;;;;;5031709;28;20033;-36
2023/04/21 00:38:22;;;;;;;5.90;2.58;;;19.00;1.00;;;;;;5031774;28;20049;-35
2023/04/21 00:40:49;;;;;;;7.07;3.15;;;18.90;1.00;;;;;;5034330;28;20037;-35
2023/04/21 00:43:15;;;;;;;5.30;2.85;;;18.90;1.00;;;;;;5016983;28;20056;-36
2023/04/21 00:45:45;;;;;;;6.80;3.60;;;18.90;1.00;;;;;;5017869;28;20188;-35
2023/04/21 00:48:12;;;;;;;8.13;3.22;;;18.90;1.00;;;;;;5017934;28;20045;-35
2023/04/21 00:50:40;;;;;;;7.53;4.28;;;18.90;1.00;;;;;;5017927;28;20531;-36
2023/04/21 00:53:07;;;;;;;4.40;2.65;;;18.90;1.00;;;;;;5034765;28;20416;-35
2023/04/21 00:55:34;;;;;;;7.40;3.13;;;18.90;1.00;;;;;;5017893;28;20516;-35
2023/04/21 00:58:02;;;;;;;6.22;3.75;;;18.90;1.00;;;;;;5017694;28;20049;-35
2023/04/21 01:00:29;;;;;;;5.03;3.35;;;18.90;1.00;;;;;;5035325;28;20038;-36
2023/04/21 01:02:58;;;;;;;5.75;3.70;;;18.80;1.00;;;;;;5034635;28;20084;-36
2023/04/21 01:05:26;;;;;;;5.07;3.30;;;18.80;1.00;;;;;;5017578;28;20136;-35
2023/04/21 01:07:52;;;;;;;8.13;2.92;;;18.80;1.00;;;;;;5017667;28;20041;-35
2023/04/21 01:10:22;;;;;;;7.55;3.13;;;18.80;1.00;;;;;;5017524;28;20128;-36
2023/04/21 01:12:50;;;;;;;8.55;3.90;;;18.70;1.00;;;;;;5000519;28;20509;-35
2023/04/21 01:15:17;;;;;;;6.10;3.17;;;18.70;1.00;;;;;;5017648;28;20433;-35
2023/04/21 01:17:45;;;;;;;7.03;3.53;;;18.70;1.00;;;;;;5017476;28;20068;-35
2023/04/21 01:20:13;;;;;;;5.70;3.28;;;18.70;1.00;;;;;;5034952;28;20404;-35
2023/04/21 01:22:41;;;;;;;6.65;4.05;;;18.70;1.00;;;;;;5016489;28;20493;-36
2023/04/21 01:25:08;;;;;;;5.47;3.45;;;18.70;1.00;;;;;;5034901;28;20046;-35
2023/04/21 01:27:35;;;;;;;8.63;4.05;;;18.70;1.00;;;;;;5017183;28;20055;-36
2023/04/21 01:30:04;;;;;;;6.97;3.55;;;18.70;1.00;;;;;;5034869;28;20041;-36
2023/04/21 01:32:31;;;;;;;7.88;4.43;;;18.60;1.00;;;;;;5034521;28;20099;-35
2023/04/21 01:34:59;;;;;;;7.10;3.88;;;18.70;1.00;;;;;;5034472;28;20060;-36
2023/04/21 01:37:29;;;;;;;7.57;4.18;;;18.60;1.00;;;;;;5016941;28;20053;-35
2023/04/21 01:39:59;;;;;;;7.50;3.78;;;18.60;1.00;;;;;;5034643;28;20432;-36
2023/04/21 01:42:28;;;;;;;7.55;4.07;;;18.60;1.00;;;;;;5034308;28;20042;-35
2023/04/21 01:44:57;;;;;;;6.03;4.18;;;18.60;1.00;;;;;;5016490;28;20484;-36
2023/04/21 01:47:24;;;;;;;8.35;3.60;;;18.60;1.00;;;;;;5016933;28;20042;-36
2023/04/21 01:49:51;;;;;;;8.00;4.47;;;18.60;1.00;;;;;;5034548;28;20038;-36
2023/04/21 01:52:18;;;;;;;8.85;4.25;;;18.50;1.00;;;;;;5033737;28;20080;-35
2023/04/21 01:54:45;;;;;;;7.28;4.30;;;18.50;1.00;;;;;;5016274;28;20119;-35
2023/04/21 01:57:13;;;;;;;6.95;4.68;;;18.50;1.00;;;;;;5016860;28;20045;-36
2023/04/21 01:59:40;;;;;;;7.63;5.07;;;18.50;1.00;;;;;;5016508;28;20593;-35
2023/04/21 02:02:07;;;;;;;7.22;4.30;;;18.50;1.00;;;;;;5016329;28;20042;-35
2023/04/21 02:04:34;;;;;;;8.43;4.03;;;18.50;1.00;;;;;;5015855;28;20088;-36
2023/04/21 02:07:02;;;;;;;6.32;3.58;;;18.50;1.00;;;;;;5016628;28;20041;-35
2023/04/21 02:09:28;;;;;;;8.27;4.22;;;18.40;1.00;;;;;;5034153;28;20037;-35
2023/04/21 02:11:56;;;;;;;8.38;4.15;;;18.50;1.00;;;;;;5034061;28;20076;-36
2023/04/21 02:14:24;;;;;;;9.23;4.78;;;18.40;1.00;;;;;;5015651;28;20144;-36
2023/04/21 02:16:51;;;;;;;9.77;4.45;;;18.40;1.00;;;;;;5034099;28;20048;-35
2023/04/21 02:19:19;;;;;;;9.77;4.20;;;18.40;1.00;;;;;;5016047;28;20716;-35
2023/04/21 02:21:46;;;;;;;6.63;4.47;;;18.40;1.00;;;;;;5016302;28;20095;-35
2023/04/21 02:24:13;;;;;;;6.00;4.45;;;18.40;1.00;;;;;;5015416;28;20050;-36
2023/04/21 02:26:39;;;;;;;8.68;3.78;;;18.40;1.00;;;;;;5016164;28;20099;-35
2023/04/21 02:29:06;;;;;;;6.15;3.72;;;18.40;1.00;;;;;;5016190;28;20081;-35
2023/04/21 02:31:37;;;;;;;10.05;4.32;;;18.30;1.00;;;;;;5033748;28;20044;-36
2023/04/21 02:34:23;;;;;;;8.60;4.38;;;18.40;1.00;;;;;;5033052;28;20055;-35
2023/04/21 02:36:50;;;;;;;10.10;4.15;;;18.40;1.00;;;;;;5015876;28;20420;-35
2023/04/21 02:39:18;;;;;;;8.32;4.40;;;18.30;1.00;;;;;;5033497;28;20041;-36
2023/04/21 02:41:45;;;;;;;8.05;4.22;;;18.30;1.00;;;;;;5033647;28;20508;-36
2023/04/21 02:44:12;;;;;;;9.18;4.07;;;18.30;1.00;;;;;;5015059;28;20726;-36
2023/04/21 02:46:40;;;;;;;11.25;5.03;;;18.30;1.00;;;;;;5015696;28;20049;-36
2023/04/21 02:49:07;;;;;;;9.07;5.05;;;18.30;1.00;;;;;;5033264;28;20411;-35
2023/04/21 02:51:34;;;;;;;9.77;4.70;;;18.20;1.00;;;;;;5015604;28;20132;-35
2023/04/21 02:54:01;;;;;;;7.03;4.30;;;18.20;1.00;;;;;;5015012;28;20132;-36
2023/04/21 02:56:28;;;;;;;7.75;3.85;;;18.20;1.00;;;;;;5015546;28;20497;-35
2023/04/21 02:58:55;;;;;;;8.13;4.38;;;18.20;1.00;;;;;;5015370;28;20052;-36
2023/04/21 03:01:22;;;;;;;9.73;4.72;;;18.20;1.00;;;;;;5014954;28;20045;-36
2023/04/21 03:03:49;;;;;;;10.13;5.45;;;18.20;1.00;;;;;;5031820;28;20052;-35
2023/04/21 03:06:15;;;;;;;7.78;4.55;;;18.20;1.00;;;;;;5015332;28;20136;-35
2023/04/21 03:08:44;;;;;;;9.48;4.55;;;18.20;1.00;;;;;;5015450;28;20041;-35
2023/04/21 03:11:11;;;;;;;7.07;4.20;;;18.20;1.00;;;;;;5033016;28;20045;-35
2023/04/21 03:13:38;;;;;;;8.77;4.80;;;18.10;1.00;;;;;;5014241;28;20053;-36
2023/04/21 03:16:05;;;;;;;7.90;4.63;;;18.10;1.00;;;;;;5015153;28;20052;-35
2023/04/21 03:18:35;;;;;;;7.90;5.25;;;18.10;1.00;;;;;;5015403;28;20671;-35
2023/04/21 03:21:01;;;;;;;10.65;4.68;;;18.10;1.00;;;;;;5015158;28;20045;-36
2023/04/21 03:23:28;;;;;;;6.60;4.65;;;18.10;1.00;;;;;;5031938;28;20159;-36
2023/04/21 03:25:55;;;;;;;8.98;4.32;;;18.10;1.00;;;;;;5014960;28;20444;-36
2023/04/21 03:28:22;;;;;;;7.65;4.93;;;18.10;1.00;;;;;;5015505;28;20104;-35
2023/04/21 03:30:50;;;;;;;9.15;4.82;;;18.10;1.00;;;;;;5014817;28;20107;-35
2023/04/21 03:33:17;;;;;;;7.47;4.45;;;18.10;1.00;;;;;;5014107;28;20068;-35
2023/04/21 03:35:44;;;;;;;8.23;4.90;;;18.00;1.00;;;;;;5032555;28;20080;-36
2023/04/21 03:38:10;;;;;;;6.00;4.00;;;18.00;1.00;;;;;;5032601;28;20084;-35
2023/04/21 03:40:37;;;;;;;10.70;5.05;;;18.00;1.00;;;;;;5032274;28;20041;-35
2023/04/21 03:43:04;;;;;;;8.73;4.30;;;18.00;1.00;;;;;;5013919;28;20493;-35
2023/04/21 03:45:34;;;;;;;6.82;4.25;;;18.00;1.00;;;;;;5014936;28;20064;-36
2023/04/21 03:48:02;;;;;;;7.38;4.47;;;18.00;1.00;;;;;;5014773;28;20042;-36
2023/04/21 03:50:29;;;;;;;8.68;4.35;;;18.00;1.00;;;;;;5032235;28;20037;-35
2023/04/21 03:52:56;;;;;;;8.60;4.85;;;18.00;1.00;;;;;;5031530;28;20138;-35
2023/04/21 03:55:23;;;;;;;8.68;4.82;;;18.00;1.00;;;;;;5032209;28;20045;-35
2023/04/21 03:57:49;;;;;;;10.27;4.28;;;17.90;1.00;;;;;;5032328;28;20060;-35
2023/04/21 04:00:16;;;;;;;11.40;4.30;;;18.00;1.00;;;;;;5032026;28;20041;-35
2023/04/21 04:02:44;;;;;;;10.10;5.68;;;18.00;1.00;;;;;;5031326;28;20220;-35
2023/04/21 04:05:11;;;;;;;11.45;4.60;;;17.90;1.00;;;;;;5032169;28;20041;-36
2023/04/21 04:07:38;;;;;;;9.90;4.95;;;17.90;1.00;;;;;;5032098;28;20072;-35
2023/04/21 04:10:05;;;;;;;9.02;4.63;;;17.90;1.00;;;;;;5030822;28;20049;-35
2023/04/21 04:12:32;;;;;;;5.82;4.00;;;17.90;1.00;;;;;;5028068;28;20460;-35
2023/04/21 04:14:59;;;;;;;8.07;4.43;;;17.90;1.00;;;;;;5025075;28;20064;-35
2023/04/21 04:17:25;;;;;;;10.38;5.18;;;17.90;1.00;;;;;;5031883;28;20053;-35
2023/04/21 04:19:52;;;;;;;9.13;4.65;;;17.90;1.00;;;;;;5031963;28;20045;-35
2023/04/21 04:22:19;;;;;;;10.88;4.72;;;17.90;1.00;;;;;;5031263;28;20041;-35
2023/04/21 04:24:46;;;;;;;13.80;4.47;;;17.90;1.00;;;;;;5031557;28;20464;-35
2023/04/21 04:27:13;;;;;;;14.48;4.82;;;17.90;1.00;;;;;;5031848;28;20048;-35
2023/04/21 04:29:40;;;;;;;9.40;4.80;;;17.80;1.00;;;;;;5031692;28;20072;-36
2023/04/21 04:32:09;;;;;;;23.83;4.65;;;17.90;1.00;;;;;;5031724;28;20052;-35
2023/04/21 04:34:37;;;;;;;9.05;4.80;;;17.90;1.00;;;;;;5031110;28;20049;-35
2023/04/21 04:37:05;;;;;;;7.10;4.65;;;17.80;1.00;;;;;;5031589;28;20048;-35
2023/04/21 04:39:32;;;;;;;7.47;4.70;;;17.80;1.00;;;;;;5031672;28;20041;-35
2023/04/21 04:42:00;;;;;;;13.48;4.22;;;17.80;1.00;;;;;;5031509;28;20042;-35
2023/04/21 04:44:26;;;;;;;7.90;4.75;;;17.80;1.00;;;;;;5016612;28;20072;-36
2023/04/21 04:46:53;;;;;;;7.07;3.90;;;17.80;1.00;;;;;;5019331;28;20044;-35
2023/04/21 04:49:20;;;;;;;7.90;4.60;;;17.80;1.00;;;;;;5011835;28;20076;-35
2023/04/21 04:51:49;;;;;;;12.55;5.38;;;17.80;1.00;;;;;;4994590;28;20484;-35
2023/04/21 04:54:16;;;;;;;7.18;4.30;;;17.70;1.00;;;;;;5013222;28;20493;-36
2023/04/21 04:56:43;;;;;;;9.02;4.18;;;17.70;1.00;;;;;;5031472;28;20053;-35
2023/04/21 04:59:11;;;;;;;6.72;4.40;;;17.70;1.00;;;;;;5031594;28;20080;-35
2023/04/21 05:01:39;;;;;;;15.77;5.35;;;17.70;1.00;;;;;;5031293;28;20056;-36
2023/04/21 05:04:06;;;;;;;6.47;4.43;;;17.70;1.00;;;;;;5030658;28;20076;-35
2023/04/21 05:06:33;;;;;;;8.00;4.10;;;17.70;1.00;;;;;;5031481;28;20061;-35
2023/04/21 05:08:59;;;;;;;7.70;4.25;;;17.70;1.00;;;;;;5031508;28;20096;-35
2023/04/21 05:11:26;;;;;;;10.00;4.38;;;17.70;1.00;;;;;;5031307;28;20038;-36
2023/04/21 05:13:53;;;;;;;13.35;4.32;;;17.70;1.00;;;;;;5030701;28;20092;-35
2023/04/21 05:16:20;;;;;;;7.95;4.25;;;17.70;1.00;;;;;;5013480;28;20417;-35
2023/04/21 05:18:49;;;;;;;5.18;3.38;;;17.70;1.00;;;;;;5031328;28;20587;-35
2023/04/21 05:21:27;;;;;;;8.57;4.38;;;17.70;1.00;;;;;;5031146;28;20042;-36
2023/04/21 05:23:55;;;;;;;9.23;3.85;;;17.70;1.00;;;;;;5030995;28;20045;-35
2023/04/21 05:26:22;;;;;;;6.65;3.47;;;17.60;1.00;;;;;;5032824;28;20060;-35
2023/04/21 05:28:49;;;;;;;7.95;3.75;;;17.60;1.00;;;;;;5034857;28;20037;-36
2023/04/21 05:31:16;;;;;;;6.50;4.78;;;17.70;1.00;;;;;;5034641;28;20042;-36
2023/04/21 05:33:43;;;;;;;8.95;3.95;;;17.60;1.00;;;;;;5034186;28;20044;-36
2023/04/21 05:36:10;;;;;;;7.32;4.28;;;17.60;1.00;;;;;;5034658;28;20049;-36
2023/04/21 05:38:37;;;;;;;7.63;3.78;;;17.60;1.00;;;;;;5034761;28;20413;-36
2023/04/21 05:41:04;;;;;;;8.95;4.20;;;17.60;1.00;;;;;;5034551;28;20056;-36
2023/04/21 05:43:32;;;;;;;9.30;4.00;;;17.60;1.00;;;;;;5033646;28;20041;-36
2023/04/21 05:46:07;;;;;;;6.25;4.43;;;17.60;1.00;;;;;;5034596;28;20440;-35
2023/04/21 05:48:34;;;;;;;8.40;4.32;;;17.60;1.00;;;;;;5034577;28;20137;-35
2023/04/21 05:51:10;;;;;;;6.65;3.28;;;17.60;1.00;;;;;;5034411;28;20092;-35
2023/04/21 05:53:38;;;;;;;6.63;4.30;;;17.60;1.00;;;;;;5033695;28;20045;-35
2023/04/21 05:56:07;;;;;;;8.05;4.05;;;17.60;1.00;;;;;;5034132;28;20104;-35
2023/04/21 05:58:34;;;;;;;7.07;4.13;;;17.60;1.00;;;;;;5034632;28;20115;-36
2023/04/21 06:01:01;;;;;;;9.63;4.28;;;17.60;1.00;;;;;;5034223;28;20531;-35
2023/04/21 06:03:31;;;;;;;7.40;3.80;;;17.50;1.00;;;;;;5033305;28;20179;-35
2023/04/21 06:05:59;;;;;;;6.38;3.65;;;17.60;1.00;;;;;;5034388;28;20120;-36
2023/04/21 06:08:26;;;;;;;9.48;4.05;;;17.60;1.00;;;;;;5034132;28;20041;-36
2023/04/21 06:10:53;;;;;;;6.43;4.03;;;17.60;1.00;;;;;;5034100;28;20238;-35
2023/04/21 06:13:20;;;;;;;9.95;4.07;;;17.50;1.00;;;;;;5033211;28;20045;-36
2023/04/21 06:15:47;;;;;;;8.00;4.30;;;17.60;1.00;;;;;;5033841;28;20049;-36
2023/04/21 06:18:14;;;;;;;5.82;3.22;;;17.60;1.00;;;;;;5033973;28;20049;-35
2023/04/21 06:20:41;;;;;;;6.20;3.22;;;17.60;1.00;;;;;;5033833;28;20107;-35
2023/04/21 06:23:08;;;;;;;7.50;3.42;;;17.60;1.00;;;;;;5032807;28;20060;-36
2023/04/21 06:25:35;;;;;;;6.65;4.20;;;17.60;1.00;;;;;;5034151;28;20476;-35
2023/04/21 06:28:02;;;;;;;10.13;4.40;;;17.50;1.00;;;;;;5033796;28;20373;-36
2023/04/21 06:30:28;;;;;;;11.18;3.80;;;17.50;1.00;;;;;;5033736;28;20456;-35
2023/04/21 06:32:55;;;;;;;7.57;4.03;;;17.50;1.00;;;;;;5032829;28;20513;-36
2023/04/21 06:35:22;;;;;;;5.97;4.25;;;17.50;1.00;;;;;;5033601;28;20120;-35
2023/04/21 06:37:49;;;;;;;9.07;4.57;;;17.50;1.00;;;;;;5032464;28;20049;-35
2023/04/21 06:40:15;;;;;;;6.47;4.18;;;17.50;1.00;;;;;;5033510;28;20069;-35
2023/04/21 06:42:42;;;;;;;6.65;4.15;;;17.50;1.00;;;;;;5032672;28;20485;-35
2023/04/21 06:45:09;;;;;;;9.07;4.20;;;17.50;1.00;;;;;;5033558;28;20395;-35
2023/04/21 06:47:36;;;;;;;7.30;4.18;;;17.50;1.00;;;;;;5033233;28;20042;-35
2023/04/21 06:50:05;;;;;;;6.50;4.32;;;17.50;1.00;;;;;;5033151;28;20048;-36
2023/04/21 06:52:31;;;;;;;6.60;4.75;;;17.50;1.00;;;;;;5032964;28;20508;-35
2023/04/21 06:54:58;;;;;;;9.50;4.28;;;17.50;1.00;;;;;;5032885;28;20049;-35
2023/04/21 06:57:25;;;;;;;9.00;5.03;;;17.50;1.00;;;;;;5033149;28;20115;-35
2023/04/21 06:59:52;;;;;;;11.23;4.68;;;17.50;1.00;;;;;;5033585;28;20441;-35
2023/04/21 07:02:19;;;;;;;7.75;4.30;;;17.50;1.00;;;;;;5032600;28;20053;-36
2023/04/21 07:04:45;;;;;;;6.80;4.03;;;17.50;1.00;;;;;;5032407;28;20125;-35
2023/04/21 07:07:13;;;;;;;8.88;5.05;;;17.50;1.00;;;;;;5033033;28;20042;-35
2023/04/21 07:09:40;;;;;;;7.85;3.85;;;17.50;1.00;;;;;;5033114;28;20048;-35
2023/04/21 07:12:06;;;;;;;7.47;3.90;;;17.50;1.00;;;;;;5032642;28;20077;-35
2023/04/21 07:14:33;;;;;;;9.25;3.78;;;17.50;1.00;;;;;;5031938;28;20493;-35
2023/04/21 07:17:00;;;;;;;7.15;4.38;;;17.50;1.00;;;;;;5032879;28;20049;-35
2023/04/21 07:19:27;;;;;;;10.10;4.57;;;17.50;1.00;;;;;;5033339;28;20297;-35
2023/04/21 07:21:53;;;;;;;8.02;4.35;;;17.50;1.00;;;;;;5032562;28;20489;-35
2023/04/21 07:24:20;;;;;;;7.25;4.20;;;17.50;1.00;;;;;;5032058;28;20424;-35
2023/04/21 07:26:47;;;;;;;8.35;4.82;;;17.50;1.00;;;;;;5032560;28;20134;-35
2023/04/21 07:29:14;;;;;;;6.32;4.38;;;17.50;1.00;;;;;;5032656;28;20041;-35
2023/04/21 07:31:40;;;;;;;8.98;4.47;;;17.50;1.00;;;;;;5032548;28;20099;-36
2023/04/21 07:34:07;;;;;;;12.13;5.50;;;17.50;1.00;;;;;;5031673;28;20053;-36
2023/04/21 07:36:37;;;;;;;12.50;4.65;;;17.50;1.00;;;;;;5032566;28;20574;-35
2023/04/21 07:39:05;;;;;;;8.60;4.35;;;17.50;1.00;;;;;;5032685;28;20433;-35
2023/04/21 07:41:41;;;;;;;7.38;4.28;;;17.50;1.00;;;;;;5014441;28;20409;-36
2023/04/21 07:44:12;;;;;;;7.47;4.07;;;17.50;1.00;;;;;;5031679;28;20052;-36
2023/04/21 07:46:40;;;;;;;7.95;4.38;;;17.50;1.00;;;;;;5032284;28;20041;-36
2023/04/21 07:49:07;;;;;;;7.43;4.65;;;17.50;1.00;;;;;;5032200;28;20409;-35
2023/04/21 07:51:34;;;;;;;6.57;3.97;;;17.50;1.00;;;;;;5032140;28;20037;-36
2023/04/21 07:54:00;;;;;;;8.00;4.65;;;17.50;1.00;;;;;;5013796;28;20409;-35
2023/04/21 07:56:27;;;;;;;7.40;4.22;;;17.50;1.00;;;;;;5032168;28;20054;-36
2023/04/21 07:58:54;;;;;;;9.32;4.78;;;17.50;1.00;;;;;;5032318;28;20045;-35
2023/04/21 08:01:22;;;;;;;8.20;4.30;;;17.50;1.00;;;;;;5031646;28;20048;-36
2023/04/21 08:03:49;;;;;;;8.48;4.38;;;17.50;1.00;;;;;;5031285;28;20461;-35
2023/04/21 08:06:16;;;;;;;7.72;4.60;;;17.50;1.00;;;;;;5032000;28;20124;-35
2023/04/21 08:08:43;;;;;;;6.95;4.28;;;17.50;1.00;;;;;;5032011;28;20041;-35
2023/04/21 08:11:10;;;;;;;9.02;4.20;;;17.50;1.00;;;;;;5031857;28;20085;-35
2023/04/21 08:13:36;;;;;;;6.57;4.35;;;17.50;1.00;;;;;;5031006;28;20049;-35
2023/04/21 08:16:03;;;;;;;6.35;4.20;;;17.50;1.00;;;;;;5031872;28;20049;-35
2023/04/21 08:18:30;;;;;;;6.38;4.22;;;17.50;1.00;;;;;;5031902;28;20049;-35
2023/04/21 08:20:57;;;;;;;8.65;4.07;;;17.50;1.00;;;;;;5031873;28;20050;-35
2023/04/21 08:23:24;;;;;;;9.55;4.25;;;17.50;1.00;;;;;;5030954;28;20044;-35
2023/04/21 08:25:50;;;;;;;7.82;4.20;;;17.50;1.00;;;;;;5031722;28;20075;-35
2023/04/21 08:28:17;;;;;;;8.30;4.05;;;17.50;1.00;;;;;;5031735;28;20038;-35
2023/04/21 08:30:44;;;;;;;7.18;4.10;;;17.50;1.00;;;;;;5031766;28;20041;-36
2023/04/21 08:33:12;;;;;;;9.38;4.25;;;17.50;1.00;;;;;;5031067;28;20041;-35
2023/04/21 08:35:40;;;;;;;6.57;4.05;;;17.50;1.00;;;;;;5031757;28;20466;-36
2023/04/21 08:38:27;;;;;;;6.97;4.90;;;17.50;1.00;;;;;;5031696;28;20053;-36
2023/04/21 08:40:56;;;;;;;6.78;4.43;;;17.50;1.00;;;;;;5031729;28;20050;-35
2023/04/21 08:43:23;;;;;;;6.43;4.50;;;17.50;1.00;;;;;;5030885;28;20581;-35
2023/04/21 08:45:53;;;;;;;9.10;4.55;;;17.40;1.00;;;;;;5031512;28;20512;-35
2023/04/21 08:48:22;;;;;;;7.57;4.03;;;17.50;1.00;;;;;;5031627;28;20489;-35
2023/04/21 08:50:50;;;;;;;7.07;4.35;;;17.40;1.00;;;;;;5032008;28;20497;-35
2023/04/21 08:53:17;;;;;;;6.85;4.22;;;17.50;1.00;;;;;;5030518;28;20055;-35
2023/04/21 08:55:45;;;;;;;12.82;5.47;;;17.40;1.00;;;;;;5031587;28;20045;-36
2023/04/21 08:58:25;;;;;;;7.35;3.60;;;17.50;1.00;;;;;;5032053;28;20065;-36
2023/04/21 09:00:52;;;;;;;7.72;4.18;;;17.40;1.00;;;;;;5032544;28;20091;-35
2023/04/21 09:03:23;;;;;;;7.05;3.90;;;17.40;1.00;;;;;;5034449;28;20052;-36
2023/04/21 09:06:06;;;;;;;4.40;3.55;;;17.40;1.00;;;;;;5035339;28;20045;-35
2023/04/21 09:08:52;;;;;;;6.63;4.20;;;17.40;1.00;;;;;;5035394;28;20042;-35
2023/04/21 09:11:25;;;;;;;6.38;3.88;;;17.40;1.00;;;;;;5035548;28;20053;-36
2023/04/21 09:13:56;;;;;;;5.50;4.15;;;17.40;1.00;;;;;;5034462;28;20052;-36
2023/04/21 09:16:23;;;;;;;7.90;3.90;;;17.40;1.00;;;;;;5035063;28;20037;-35
2023/04/21 09:18:50;;;;;;;8.98;4.18;;;17.40;1.00;;;;;;5035168;28;20046;-35
2023/04/21 09:21:18;;;;;;;10.65;5.05;;;17.40;1.00;;;;;;5034941;28;20049;-36
2023/04/21 09:23:50;;;;;;;7.00;4.32;;;17.40;1.00;;;;;;5034111;28;20116;-35
2023/04/21 09:26:19;;;;;;;6.00;4.55;;;17.40;1.00;;;;;;5034918;28;20070;-35
2023/04/21 09:28:48;;;;;;;9.57;4.80;;;17.40;1.00;;;;;;5035037;28;20160;-35
2023/04/21 09:31:20;;;;;;;5.95;4.15;;;17.40;1.00;;;;;;5034867;28;20387;-37
2023/04/21 09:33:48;;;;;;;7.13;4.25;;;17.40;1.00;;;;;;5034136;28;20065;-35
2023/04/21 09:36:23;;;;;;;6.03;3.90;;;17.40;1.00;;;;;;5034771;28;20092;-35
2023/04/21 09:38:53;;;;;;;8.02;3.85;;;17.40;1.00;;;;;;5034680;28;20077;-35
2023/04/21 09:41:40;;;;;;;5.00;3.35;;;17.40;1.00;;;;;;5034679;28;20049;-35
2023/04/21 09:44:07;;;;;;;7.13;4.75;;;17.40;1.00;;;;;;5033821;28;20065;-35
2023/04/21 09:46:36;;;;;;;7.32;3.83;;;17.40;1.00;;;;;;5034650;28;20042;-35
2023/04/21 09:49:05;;;;;;;8.02;4.07;;;17.40;1.00;;;;;;5034483;28;20046;-35
2023/04/21 09:51:33;;;;;;;6.35;4.03;;;17.40;1.00;;;;;;5034110;28;20049;-35
2023/04/21 09:54:22;;;;;;;6.32;3.95;;;17.40;1.00;;;;;;5033769;28;20038;-35
2023/04/21 09:56:55;;;;;;;7.07;3.92;;;17.40;1.00;;;;;;5034551;28;20049;-35
2023/04/21 09:59:29;;;;;;;9.07;4.63;;;17.40;1.00;;;;;;5034199;28;20045;-35
2023/04/21 10:01:58;;;;;;;9.48;4.22;;;17.50;1.00;;;;;;5033944;28;20045;-35
2023/04/21 10:04:27;;;;;;;9.45;4.63;;;17.50;1.00;;;;;;5033264;28;20497;-35
2023/04/21 10:06:55;;;;;;;5.63;3.97;;;17.50;1.00;;;;;;5034365;28;20432;-35
2023/04/21 10:09:24;;;;;;;6.80;4.50;;;17.50;1.00;;;;;;5034189;28;20041;-35
2023/04/21 10:11:52;;;;;;;9.20;3.75;;;17.50;1.00;;;;;;5033895;28;20053;-35
2023/04/21 10:14:19;;;;;;;5.88;4.15;;;17.50;1.00;;;;;;5033118;28;20114;-35
2023/04/21 10:16:56;;;;;;;9.25;4.47;;;17.50;1.00;;;;;;5033999;28;20038;-35
2023/04/21 10:19:25;;;;;;;6.60;3.67;;;17.50;1.00;;;;;;5033970;28;20431;-35
2023/04/21 10:21:55;;;;;;;9.10;4.20;;;17.50;1.00;;;;;;5033694;28;20042;-35
2023/04/21 10:24:22;;;;;;;8.40;4.22;;;17.50;1.00;;;;;;5033052;28;20439;-35
2023/04/21 10:26:50;;;;;;;6.50;4.22;;;17.50;1.00;;;;;;5033999;28;20045;-35
2023/04/21 10:29:33;;;;;;;6.68;4.13;;;17.60;1.00;;;;;;5033497;28;20042;-35
2023/04/21 10:32:50;;;;;;;9.00;4.45;;;17.60;1.00;;;;;;5033453;28;20048;-35
2023/04/21 10:35:23;;;;;;;6.75;4.00;;;17.60;1.00;;;;;;5016842;28;20120;-35
2023/04/21 10:37:50;;;;;;;5.80;3.65;;;17.50;1.00;;;;;;5033639;28;20045;-35
2023/04/21 10:40:29;;;;;;;7.75;3.78;;;17.60;1.00;;;;;;5033435;28;20048;-35
2023/04/21 10:43:41;;;;;;;7.53;4.28;;;17.60;1.00;;;;;;5032851;28;20073;-35
2023/04/21 10:46:35;;;;;;;9.45;4.35;;;17.60;1.00;;;;;;5033412;28;20519;-35
2023/04/21 10:49:09;;;;;;;7.55;4.57;;;17.60;1.00;;;;;;5021815;28;20057;-35
2023/04/21 10:52:07;;;;;;;5.13;4.05;;;17.60;1.00;;;;;;5033355;28;20041;-35
2023/04/21 10:54:44;;;;;;;5.88;4.03;;;17.60;1.00;;;;;;5032945;28;20416;-35
2023/04/21 10:57:18;;;;;;;7.55;4.97;;;17.60;1.00;;;;;;5033394;28;20489;-35
2023/04/21 10:59:46;;;;;;;11.32;4.30;;;17.60;1.00;;;;;;5033194;28;20045;-35
2023/04/21 11:02:15;;;;;;;7.80;4.50;;;17.60;1.00;;;;;;5033091;28;20103;-35
2023/04/21 11:04:48;;;;;;;4.85;3.80;;;17.60;1.00;;;;;;5032580;28;20041;-35
2023/04/21 11:07:20;;;;;;;10.77;4.05;;;17.60;1.00;;;;;;5033089;28;20489;-35
2023/04/21 11:09:55;;;;;;;7.35;4.65;;;17.60;1.00;;;;;;5033024;28;20045;-35
2023/04/21 11:12:30;;;;;;;8.05;3.92;;;17.70;1.00;;;;;;5032637;28;20064;-36
2023/04/21 11:14:56;;;;;;;8.90;4.43;;;17.70;1.00;;;;;;5032505;28;20091;-36
2023/04/21 11:17:23;;;;;;;6.70;4.63;;;17.60;1.00;;;;;;5032933;28;20065;-36
2023/04/21 11:19:55;;;;;;;10.82;4.85;;;17.60;1.00;;;;;;5032684;28;20499;-36
2023/04/21 11:22:23;;;;;;;7.03;4.43;;;17.70;1.00;;;;;;5032502;28;20045;-36
2023/04/21 11:24:53;;;;;;;6.15;4.47;;;17.60;1.00;;;;;;5031584;28;20045;-35
2023/04/21 11:27:23;;;;;;;9.25;4.95;;;17.70;1.00;;;;;;5032580;28;20045;-36
2023/04/21 11:29:50;;;;;;;8.73;4.28;;;17.70;1.00;;;;;;5032590;28;20045;-36
2023/04/21 11:32:18;;;;;;;6.15;4.88;;;17.70;1.00;;;;;;5032188;28;20111;-36
2023/04/21 11:34:45;;;;;;;7.05;4.80;;;17.70;1.00;;;;;;5032097;28;20037;-36
2023/04/21 11:37:22;;;;;;;8.55;4.18;;;17.70;1.00;;;;;;5032825;28;20048;-36
2023/04/21 11:39:49;;;;;;;6.88;4.82;;;17.70;1.00;;;;;;5032380;28;20140;-36
2023/04/21 11:42:22;;;;;;;8.13;3.90;;;17.70;1.00;;;;;;5032050;28;20087;-35
2023/04/21 11:44:48;;;;;;;7.88;4.75;;;17.70;1.00;;;;;;5031928;28;20063;-36
2023/04/21 11:47:18;;;;;;;6.75;4.13;;;17.70;1.00;;;;;;5032355;28;20559;-35
2023/04/21 11:49:56;;;;;;;8.23;4.38;;;17.70;1.00;;;;;;5032207;28;20042;-36
2023/04/21 11:52:42;;;;;;;5.63;4.38;;;17.70;1.00;;;;;;5031825;28;20038;-35
2023/04/21 11:55:18;;;;;;;6.32;4.00;;;17.70;1.00;;;;;;5032469;28;20073;-36
2023/04/21 11:57:45;;;;;;;7.85;4.53;;;17.70;1.00;;;;;;5032381;28;20049;-36
2023/04/21 12:00:13;;;;;;;8.00;4.30;;;17.70;1.00;;;;;;5032037;28;20340;-35
2023/04/21 12:02:41;;;;;;;8.30;4.95;;;17.70;1.00;;;;;;5031296;28;20056;-36
2023/04/21 12:05:10;;;;;;;6.95;4.43;;;17.70;1.00;;;;;;5014062;28;20390;-36
2023/04/21 12:07:47;;;;;;;5.85;4.15;;;17.70;1.00;;;;;;5032084;28;20049;-36
2023/04/21 12:10:18;;;;;;;5.18;4.07;;;17.70;1.00;;;;;;5031725;28;20049;-36
2023/04/21 12:12:45;;;;;;;8.07;5.00;;;17.70;1.00;;;;;;5031120;28;20072;-36
2023/04/21 12:15:18;;;;;;;7.40;4.90;;;17.70;1.00;;;;;;5031637;28;20049;-35
2023/04/21 12:17:50;;;;;;;7.82;4.63;;;17.70;1.00;;;;;;5014525;28;20107;-35
2023/04/21 12:20:19;;;;;;;5.28;4.43;;;17.70;1.00;;;;;;5031937;28;20466;-35
2023/04/21 12:22:48;;;;;;;7.25;4.80;;;17.70;1.00;;;;;;5030971;28;20042;-36
2023/04/21 12:25:15;;;;;;;8.02;4.22;;;17.70;1.00;;;;;;5014102;28;20073;-35
2023/04/21 12:27:48;;;;;;;4.95;3.55;;;17.70;1.00;;;;;;5031834;28;20104;-36
2023/04/21 12:30:15;;;;;;;6.82;4.22;;;17.70;1.00;;;;;;5031680;28;20088;-36
2023/04/21 12:32:42;;;;;;;10.95;4.82;;;17.70;1.00;;;;;;5030900;28;20124;-36
2023/04/21 12:35:10;;;;;;;7.95;4.28;;;17.70;1.00;;;;;;5031725;28;20385;-35
2023/04/21 12:37:36;;;;;;;6.43;5.00;;;17.80;1.00;;;;;;5035863;28;20390;-36
2023/04/21 12:40:04;;;;;;;11.25;6.25;;;17.70;1.00;;;;;;5018157;28;20144;-36
2023/04/21 12:42:31;;;;;;;7.57;4.18;;;17.80;1.00;;;;;;5035293;28;20508;-35
2023/04/21 12:45:00;;;;;;;7.97;4.05;;;17.70;1.00;;;;;;5035258;28;20041;-36
2023/04/21 12:47:27;;;;;;;9.07;4.68;;;17.70;1.00;;;;;;5035730;28;20049;-36
2023/04/21 12:49:54;;;;;;;6.78;4.28;;;17.70;1.00;;;;;;5035798;28;20451;-35
2023/04/21 12:52:20;;;;;;;5.50;4.07;;;17.70;1.00;;;;;;5035150;28;20053;-36
2023/04/21 12:54:47;;;;;;;7.22;4.72;;;17.70;1.00;;;;;;5035072;28;20045;-35
2023/04/21 12:57:14;;;;;;;5.72;3.92;;;17.80;1.00;;;;;;5035776;28;20456;-36
2023/04/21 12:59:41;;;;;;;7.13;5.05;;;17.80;1.00;;;;;;5035481;28;20049;-36
2023/04/21 13:02:11;;;;;;;9.85;4.30;;;17.80;1.00;;;;;;5034851;28;20046;-36
2023/04/21 13:04:40;;;;;;;11.55;4.95;;;17.80;1.00;;;;;;5034759;28;20124;-35